Time;durP1;ratioP1;P1;durP2;ratioP2;P2;SDS_P1;SDS_P2;PMS_P1;PMS_P2;Temp;Humidity;BMP_temperature;BMP_pressure;BME280_temperature;BME280_humidity;BME280_pressure;Samples;Min_cycle;Max_cycle;Signal;HPM_P1;HPM_P2
2023/05/26 05:24:23;;;;;;;;;;;;;;;17.54;66.95;97386.91;4237050;27;10372;-70
2023/05/26 05:26:26;;;;;;;;;;;;;;;17.87;66.36;97382.00;4226894;27;5671;-69
2023/05/26 05:28:29;;;;;;;;;;;;;;;18.13;65.99;97380.88;4221758;28;5672;-70
2023/05/26 05:30:32;;;;;;;;;;;;;;;18.39;65.51;97390.38;4221880;28;5913;-69
2023/05/26 05:32:35;;;;;;;;;;;;;;;18.61;65.14;97393.34;4228901;28;5811;-70
2023/05/26 05:34:38;;;;;;;;;;;;;;;18.81;64.73;97382.38;4218475;28;5627;-70
2023/05/26 05:36:41;;;;;;;;;;;;;;;18.97;64.49;97387.03;4223272;27;5922;-70
2023/05/26 05:38:44;;;;;;;;;;;;;;;19.12;64.35;97384.69;4227682;27;5766;-71
2023/05/26 05:40:48;;;;;;;;;;;;;;;19.25;64.07;97388.19;4231299;28;5884;-69
2023/05/26 05:42:51;;;;;;;;;;;;;;;19.38;63.95;97388.78;4231004;28;5656;-70
2023/05/26 05:44:54;;;;;;;;;;;;;;;19.51;63.57;97381.53;4231431;28;5660;-69
2023/05/26 05:46:57;;;;;;;;;;;;;;;19.61;63.18;97381.78;4231832;28;5676;-69
2023/05/26 05:48:59;;;;;;;;;;;;;;;19.67;63.13;97386.19;4231541;28;5679;-69
2023/05/26 05:51:03;;;;;;;;;;;;;;;19.76;63.16;97392.84;4231432;28;5687;-69
2023/05/26 05:53:06;;;;;;;;;;;;;;;19.82;62.91;97391.91;4231359;28;5854;-69
2023/05/26 05:55:09;;;;;;;;;;;;;;;19.87;62.83;97396.53;4231329;28;5909;-69
2023/05/26 05:57:14;;;;;;;;;;;;;;;19.93;62.75;97404.47;4231481;28;5664;-69
2023/05/26 05:59:16;;;;;;;;;;;;;;;19.98;62.58;97403.75;4231064;28;7274;-69
2023/05/26 06:01:20;;;;;;;;;;;;;;;20.02;62.40;97397.66;4229840;28;5782;-69
2023/05/26 06:03:22;;;;;;;;;;;;;;;20.10;62.00;97401.84;4231288;28;5679;-68
2023/05/26 06:05:26;;;;;;;;;;;;;;;20.13;62.18;97404.03;4231251;28;5659;-69
2023/05/26 06:07:29;;;;;;;;;;;;;;;20.17;62.05;97407.06;4229503;28;5624;-69
2023/05/26 06:09:33;;;;;;;;;;;;;;;20.23;61.72;97404.22;4231040;28;5668;-69
2023/05/26 06:11:36;;;;;;;;;;;;;;;20.26;61.40;97403.75;4231085;28;5704;-69
2023/05/26 06:13:40;;;;;;;;;;;;;;;20.28;61.66;97408.91;4229523;28;5747;-69
2023/05/26 06:15:43;;;;;;;;;;;;;;;20.31;61.55;97409.22;4231063;28;5758;-69
2023/05/26 06:17:46;;;;;;;;;;;;;;;20.35;61.11;97414.91;4231285;28;5676;-69
2023/05/26 06:19:49;;;;;;;;;;;;;;;20.38;60.95;97409.06;4230948;28;5822;-69
2023/05/26 06:21:52;;;;;;;;;;;;;;;20.45;60.87;97406.28;4230922;28;5656;-70
2023/05/26 06:23:55;;;;;;;;;;;;;;;20.53;60.86;97411.25;4227390;28;5680;-69
2023/05/26 06:25:59;;;;;;;;;;;;;;;20.55;60.29;97414.50;4219498;28;5830;-70
2023/05/26 06:28:02;;;;;;;;;;;;;;;20.58;60.68;97416.72;4219934;28;5671;-70
2023/05/26 06:30:08;;;;;;;;;;;;;;;20.62;60.22;97416.00;4219430;28;5668;-69
2023/05/26 06:32:11;;;;;;;;;;;;;;;20.64;59.93;97416.56;4219531;28;5786;-69
2023/05/26 06:34:14;;;;;;;;;;;;;;;20.66;59.87;97416.31;4219187;28;7959;-69
2023/05/26 06:36:17;;;;;;;;;;;;;;;20.68;59.83;97418.75;4219554;28;5660;-70
2023/05/26 06:38:20;;;;;;;;;;;;;;;20.70;59.68;97417.47;4219404;28;5675;-69
2023/05/26 06:40:23;;;;;;;;;;;;;;;20.75;59.75;97420.25;4216035;28;5636;-70
2023/05/26 06:42:26;;;;;;;;;;;;;;;20.76;59.74;97419.19;4218804;28;5660;-69
2023/05/26 06:44:29;;;;;;;;;;;;;;;20.77;59.27;97426.19;4219007;28;5660;-70
2023/05/26 06:46:33;;;;;;;;;;;;;;;20.81;59.31;97423.81;4219205;28;5672;-70
2023/05/26 06:48:36;;;;;;;;;;;;;;;20.86;59.27;97427.44;4219081;28;5679;-70
2023/05/26 06:50:39;;;;;;;;;;;;;;;20.88;58.94;97430.69;4217103;28;5669;-70
2023/05/26 06:52:42;;;;;;;;;;;;;;;20.90;58.74;97430.44;4218296;28;5672;-70
2023/05/26 06:54:45;;;;;;;;;;;;;;;20.87;58.51;97429.06;4216218;28;5084;-70
2023/05/26 06:56:47;;;;;;;;;;;;;;;20.83;58.44;97427.88;4219029;28;5676;-70
2023/05/26 06:58:51;;;;;;;;;;;;;;;20.81;58.85;97434.56;4217549;28;5842;-69
2023/05/26 07:00:58;;;;;;;;;;;;;;;20.76;58.65;97429.13;4219194;28;5763;-69
2023/05/26 07:03:02;;;;;;;;;;;;;;;20.73;58.57;97432.31;4218996;28;5758;-69
2023/05/26 07:05:08;;;;;;;;;;;;;;;20.67;58.44;97435.94;4219191;28;5676;-70
2023/05/26 07:07:11;;;;;;;;;;;;;;;20.61;58.30;97429.66;4218592;28;5696;-69
2023/05/26 07:09:14;;;;;;;;;;;;;;;20.57;58.61;97428.50;4222676;28;5814;-69
2023/05/26 07:11:17;;;;;;;;;;;;;;;20.57;58.72;97437.38;4218633;28;5668;-70
2023/05/26 07:13:20;;;;;;;;;;;;;;;20.57;58.28;97429.31;4218519;28;5676;-70
2023/05/26 07:15:23;;;;;;;;;;;;;;;20.57;58.25;97432.00;4218457;28;6484;-70
2023/05/26 07:17:26;;;;;;;;;;;;;;;20.58;58.27;97427.47;4218829;28;5986;-70
2023/05/26 07:19:30;;;;;;;;;;;;;;;20.58;58.33;97430.13;4216511;28;5739;-69
2023/05/26 07:21:33;;;;;;;;;;;;;;;20.57;58.06;97432.00;4207863;28;5683;-69
2023/05/26 07:23:36;;;;;;;;;;;;;;;20.57;57.80;97431.19;4203948;28;5669;-69
2023/05/26 07:25:39;;;;;;;;;;;;;;;20.54;57.66;97426.31;4218690;28;5790;-69
2023/05/26 07:27:42;;;;;;;;;;;;;;;20.52;57.92;97431.13;4215515;28;5846;-69
2023/05/26 07:29:45;;;;;;;;;;;;;;;20.51;57.93;97429.50;4213188;28;5898;-69
2023/05/26 07:31:48;;;;;;;;;;;;;;;20.48;57.52;97432.63;4218568;28;7787;-69
2023/05/26 07:33:51;;;;;;;;;;;;;;;20.46;57.98;97434.75;4217722;28;5676;-69
2023/05/26 07:35:55;;;;;;;;;;;;;;;20.40;57.67;97428.47;4217414;28;5684;-69
2023/05/26 07:37:59;;;;;;;;;;;;;;;20.35;57.83;97425.66;4218191;28;7699;-70
2023/05/26 07:40:02;;;;;;;;;;;;;;;20.34;57.57;97432.09;4218370;28;5673;-70
2023/05/26 07:42:06;;;;;;;;;;;;;;;20.31;57.84;97436.06;4206538;28;5724;-70
2023/05/26 07:44:09;;;;;;;;;;;;;;;20.30;57.70;97434.44;4217938;28;5679;-70
2023/05/26 07:46:12;;;;;;;;;;;;;;;20.29;57.74;97429.31;4217966;28;5886;-70
2023/05/26 07:48:15;;;;;;;;;;;;;;;20.27;57.85;97424.19;4218081;28;5700;-70
2023/05/26 07:50:20;;;;;;;;;;;;;;;20.26;57.34;97427.09;4210105;28;5779;-69
2023/05/26 07:52:25;;;;;;;;;;;;;;;20.25;57.34;97426.28;4218015;28;5660;-70
2023/05/26 07:54:28;;;;;;;;;;;;;;;20.25;57.23;97431.66;4218031;28;5716;-70
2023/05/26 07:56:31;;;;;;;;;;;;;;;20.26;57.43;97427.09;4218181;28;5715;-70
2023/05/26 07:58:35;;;;;;;;;;;;;;;20.28;57.26;97417.75;4216126;28;5672;-70
2023/05/26 08:00:38;;;;;;;;;;;;;;;20.32;57.06;97426.16;4215968;28;5759;-70
2023/05/26 08:02:42;;;;;;;;;;;;;;;20.31;57.45;97419.16;4212248;28;5775;-70
2023/05/26 08:04:46;;;;;;;;;;;;;;;20.33;57.23;97423.22;4201379;28;5779;-70
2023/05/26 08:06:49;;;;;;;;;;;;;;;20.35;57.29;97420.28;4216763;28;5671;-70
2023/05/26 08:08:53;;;;;;;;;;;;;;;20.36;56.88;97422.72;4217782;28;5697;-70
2023/05/26 08:10:58;;;;;;;;;;;;;;;20.41;57.12;97424.72;4218019;28;5661;-70
2023/05/26 08:13:01;;;;;;;;;;;;;;;20.41;56.74;97423.91;4217515;28;5878;-70
2023/05/26 08:15:05;;;;;;;;;;;;;;;20.41;57.11;97421.22;4217815;28;7647;-70
2023/05/26 08:17:08;;;;;;;;;;;;;;;20.43;57.15;97428.00;4217846;28;5800;-71
2023/05/26 08:19:10;;;;;;;;;;;;;;;20.42;56.66;97425.53;4217994;28;5663;-71
2023/05/26 08:21:13;;;;;;;;;;;;;;;20.42;56.67;97425.53;4217361;28;5671;-71
2023/05/26 08:23:16;;;;;;;;;;;;;;;20.41;56.63;97424.72;4217496;28;5676;-71
2023/05/26 08:25:21;;;;;;;;;;;;;;;20.40;56.95;97417.72;4217601;28;5775;-71
2023/05/26 08:27:23;;;;;;;;;;;;;;;20.41;56.61;97419.34;4217674;28;5787;-71
2023/05/26 08:29:26;;;;;;;;;;;;;;;20.43;56.72;97421.81;4217192;28;6478;-71
2023/05/26 08:31:29;;;;;;;;;;;;;;;20.43;56.47;97419.94;4217749;28;5723;-71
2023/05/26 08:33:32;;;;;;;;;;;;;;;20.43;56.47;97419.13;4217466;28;5672;-71
2023/05/26 08:35:35;;;;;;;;;;;;;;;20.41;56.40;97419.34;4217884;28;5803;-71
2023/05/26 08:37:38;;;;;;;;;;;;;;;20.39;56.40;97420.66;4217712;28;5676;-70
2023/05/26 08:39:42;;;;;;;;;;;;;;;20.38;56.52;97427.03;4217470;28;5711;-70
2023/05/26 08:41:49;;;;;;;;;;;;;;;20.38;56.68;97416.31;4217354;28;5660;-71
2023/05/26 08:43:54;;;;;;;;;;;;;;;20.36;56.44;97420.03;4216979;28;5763;-70
2023/05/26 08:46:11;;;;;;;;;;;;;;;20.38;56.32;97419.81;4217511;28;5675;-71
2023/05/26 08:48:16;;;;;;;;;;;;;;;20.45;56.47;97420.50;4217401;28;5700;-71
2023/05/26 08:50:20;;;;;;;;;;;;;;;20.47;56.40;97412.22;4209294;28;5750;-71
2023/05/26 08:52:24;;;;;;;;;;;;;;;20.49;56.32;97420.84;4217378;28;5736;-71
2023/05/26 08:54:27;;;;;;;;;;;;;;;20.48;56.18;97413.84;4217258;28;5683;-71
2023/05/26 08:56:30;;;;;;;;;;;;;;;20.51;56.39;97418.75;4217344;28;5833;-71
2023/05/26 08:58:39;;;;;;;;;;;;;;;20.51;56.21;97424.13;4217334;28;6381;-71
2023/05/26 09:00:42;;;;;;;;;;;;;;;20.51;56.46;97422.25;4217169;28;5784;-70
2023/05/26 09:02:46;;;;;;;;;;;;;;;20.51;56.23;97424.13;4217388;28;5664;-71
2023/05/26 09:04:49;;;;;;;;;;;;;;;20.53;56.03;97422.00;4216997;28;5660;-71
2023/05/26 09:06:52;;;;;;;;;;;;;;;20.54;55.98;97427.13;4217538;28;5712;-70
2023/05/26 09:09:18;;;;;;;;;;;;;;;20.57;55.91;97423.97;4217744;28;5672;-74
2023/05/26 09:11:23;;;;;;;;;;;;;;;20.57;56.21;97423.13;4200757;28;5828;-70
2023/05/26 09:13:26;;;;;;;;;;;;;;;20.57;55.76;97420.47;4209695;28;5696;-70
2023/05/26 09:15:31;;;;;;;;;;;;;;;20.60;55.83;97417.28;4216803;28;5672;-71
2023/05/26 09:17:35;;;;;;;;;;;;;;;20.61;56.01;97418.91;4217456;28;5671;-70
2023/05/26 09:19:38;;;;;;;;;;;;;;;20.61;55.99;97411.69;4217383;28;5656;-70
2023/05/26 09:21:46;;;;;;;;;;;;;;;20.63;55.56;97422.19;4217352;28;5723;-70
2023/05/26 09:23:54;;;;;;;;;;;;;;;20.64;55.85;97413.88;4217174;28;5671;-70
2023/05/26 09:25:57;;;;;;;;;;;;;;;20.65;55.58;97417.38;4217216;28;5784;-70
2023/05/26 09:28:01;;;;;;;;;;;;;;;20.67;55.90;97409.91;4217020;28;5684;-70
2023/05/26 09:30:06;;;;;;;;;;;;;;;20.65;55.50;97406.63;4217026;28;5763;-71
2023/05/26 09:32:15;;;;;;;;;;;;;;;20.64;55.46;97415.75;4217378;28;5664;-70
2023/05/26 09:34:21;;;;;;;;;;;;;;;20.66;55.56;97404.75;4217161;28;7268;-70
2023/05/26 09:36:26;;;;;;;;;;;;;;;20.69;55.51;97406.97;4217145;28;5684;-71
2023/05/26 09:38:29;;;;;;;;;;;;;;;20.70;55.44;97406.72;4217235;28;5680;-71
2023/05/26 09:40:32;;;;;;;;;;;;;;;20.73;55.34;97408.94;4217208;28;5683;-71
2023/05/26 09:42:37;;;;;;;;;;;;;;;20.74;55.15;97405.19;4216713;28;5660;-71
2023/05/26 09:44:39;;;;;;;;;;;;;;;20.72;55.27;97415.34;4216658;28;5680;-71
2023/05/26 09:46:44;;;;;;;;;;;;;;;20.73;54.99;97406.25;4216958;28;5705;-71
2023/05/26 09:48:51;;;;;;;;;;;;;;;20.77;55.14;97412.75;4216961;28;5767;-71
2023/05/26 09:50:54;;;;;;;;;;;;;;;20.81;54.79;97411.19;4217029;28;5667;-72
2023/05/26 09:52:58;;;;;;;;;;;;;;;20.84;55.12;97409.94;4216785;28;5684;-71
2023/05/26 09:55:01;;;;;;;;;;;;;;;20.84;54.91;97412.63;4217253;28;6500;-69
2023/05/26 09:57:05;;;;;;;;;;;;;;;20.81;54.59;97396.97;4217124;28;5675;-71
2023/05/26 09:59:10;;;;;;;;;;;;;;;20.81;54.71;97403.13;4216978;28;5731;-70
2023/05/26 10:01:13;;;;;;;;;;;;;;;20.82;54.63;97391.34;4220098;28;5695;-70
2023/05/26 10:03:16;;;;;;;;;;;;;;;20.83;54.36;97397.53;4219869;28;5671;-70
2023/05/26 10:05:24;;;;;;;;;;;;;;;20.84;54.24;97397.31;4219924;28;5681;-70
2023/05/26 10:07:29;;;;;;;;;;;;;;;20.87;54.61;97399.50;4220442;28;5747;-71
2023/05/26 10:09:35;;;;;;;;;;;;;;;20.88;54.53;97394.94;4219830;28;6558;-70
2023/05/26 10:11:42;;;;;;;;;;;;;;;20.89;54.03;97393.88;4218765;28;5639;-70
2023/05/26 10:13:45;;;;;;;;;;;;;;;20.90;54.21;97399.00;4219576;28;5819;-71
2023/05/26 10:15:49;;;;;;;;;;;;;;;20.93;54.13;97395.00;4219550;28;5724;-70
2023/05/26 10:17:52;;;;;;;;;;;;;;;20.92;54.15;97388.81;4220064;28;5905;-70
2023/05/26 10:19:58;;;;;;;;;;;;;;;20.94;53.88;97392.06;4219792;28;5675;-70
2023/05/26 10:22:09;;;;;;;;;;;;;;;20.96;53.85;97386.47;4219683;28;6256;-71
2023/05/26 10:24:18;;;;;;;;;;;;;;;20.98;53.49;97389.72;4219615;28;5731;-71
2023/05/26 10:26:26;;;;;;;;;;;;;;;21.00;53.28;97390.28;4219772;28;5851;-71
2023/05/26 10:28:35;;;;;;;;;;;;;;;21.03;53.34;97386.28;4219700;28;5676;-71
2023/05/26 10:30:42;;;;;;;;;;;;;;;21.05;53.21;97381.47;4219265;28;5656;-71
2023/05/26 10:32:46;;;;;;;;;;;;;;;21.06;53.51;97375.03;4219914;28;6387;-71
2023/05/26 10:34:51;;;;;;;;;;;;;;;21.08;53.41;97379.13;4219459;28;5771;-71
2023/05/26 10:37:02;;;;;;;;;;;;;;;21.11;53.11;97375.13;4219634;28;5667;-71
2023/05/26 10:39:10;;;;;;;;;;;;;;;21.12;53.15;97380.25;4219235;28;5660;-71
2023/05/26 10:41:29;;;;;;;;;;;;;;;21.15;53.21;97368.19;4219179;28;5940;-71
2023/05/26 10:43:33;;;;;;;;;;;;;;;21.16;53.35;97367.94;4219582;28;5731;-71
2023/05/26 10:45:44;;;;;;;;;;;;;;;21.15;53.04;97371.69;4219019;28;5752;-71
2023/05/26 10:47:48;;;;;;;;;;;;;;;21.17;53.21;97371.44;4219575;28;5798;-71
2023/05/26 10:49:57;;;;;;;;;;;;;;;21.16;53.33;97359.88;4218939;28;5692;-71
2023/05/26 10:52:11;;;;;;;;;;;;;;;21.15;53.04;97362.81;4219321;28;5660;-71
2023/05/26 10:54:18;;;;;;;;;;;;;;;21.17;52.95;97358.81;4218134;28;5616;-71
2023/05/26 10:56:26;;;;;;;;;;;;;;;21.21;53.43;97354.59;4219448;28;5683;-72
2023/05/26 10:58:33;;;;;;;;;;;;;;;21.24;52.93;97355.97;4219293;28;5680;-71
2023/05/26 11:00:36;;;;;;;;;;;;;;;21.26;53.11;97348.50;4218890;28;5695;-70
2023/05/26 11:02:39;;;;;;;;;;;;;;;21.29;53.18;97349.84;4218960;28;5665;-70
2023/05/26 11:04:44;;;;;;;;;;;;;;;21.33;52.88;97351.81;4218840;28;5660;-70
2023/05/26 11:06:50;;;;;;;;;;;;;;;21.36;53.42;97347.81;4218667;28;7691;-71
2023/05/26 11:08:54;;;;;;;;;;;;;;;21.38;53.18;97354.56;4219190;28;5704;-71
2023/05/26 11:11:02;;;;;;;;;;;;;;;21.40;53.42;97346.25;4218829;28;5679;-70
2023/05/26 11:13:05;;;;;;;;;;;;;;;21.41;53.42;97353.28;4218716;28;5656;-71
2023/05/26 11:15:27;;;;;;;;;;;;;;;21.39;53.14;97340.06;4218867;28;5751;-71
2023/05/26 11:17:30;;;;;;;;;;;;;;;21.40;53.27;97341.69;4218633;28;5775;-71
2023/05/26 11:19:35;;;;;;;;;;;;;;;21.41;53.24;97343.34;4218645;28;5759;-71
2023/05/26 11:21:40;;;;;;;;;;;;;;;21.44;53.05;97342.03;4218581;28;7576;-71
2023/05/26 11:23:43;;;;;;;;;;;;;;;21.44;53.12;97342.03;4218731;28;5766;-71
2023/05/26 11:25:47;;;;;;;;;;;;;;;21.44;53.12;97340.13;4218803;28;5684;-71
2023/05/26 11:27:51;;;;;;;;;;;;;;;21.47;53.48;97342.31;4218436;28;5668;-71
2023/05/26 11:30:00;;;;;;;;;;;;;;;21.49;53.56;97339.38;4218392;28;5740;-71
2023/05/26 11:32:04;;;;;;;;;;;;;;;21.50;53.47;97335.63;4218789;28;5664;-72
2023/05/26 11:34:09;;;;;;;;;;;;;;;21.53;53.60;97334.34;4218706;28;5101;-70
2023/05/26 11:36:14;;;;;;;;;;;;;;;21.55;53.60;97332.22;4217054;28;5711;-71
2023/05/26 11:38:19;;;;;;;;;;;;;;;21.57;53.51;97330.88;4218240;28;5716;-70
2023/05/26 11:40:23;;;;;;;;;;;;;;;21.61;53.20;97331.19;4218531;28;5775;-70
2023/05/26 11:42:28;;;;;;;;;;;;;;;21.63;53.23;97329.06;4218313;28;5708;-70
2023/05/26 11:44:31;;;;;;;;;;;;;;;21.64;53.61;97325.34;4218283;28;5786;-69
2023/05/26 11:46:38;;;;;;;;;;;;;;;21.63;53.30;97326.38;4218592;28;5755;-70
2023/05/26 11:48:43;;;;;;;;;;;;;;;21.63;53.48;97323.69;4218360;28;5695;-70
2023/05/26 11:50:45;;;;;;;;;;;;;;;21.63;53.42;97326.38;4216963;28;5616;-70
2023/05/26 11:52:50;;;;;;;;;;;;;;;21.65;53.60;97326.94;4218445;28;5672;-70
2023/05/26 11:54:53;;;;;;;;;;;;;;;21.67;53.42;97322.13;4218230;28;5770;-70
2023/05/26 11:56:55;;;;;;;;;;;;;;;21.69;53.33;97325.38;4216977;28;5616;-70
2023/05/26 11:59:00;;;;;;;;;;;;;;;21.72;53.63;97327.56;4218155;28;5668;-70
2023/05/26 12:01:05;;;;;;;;;;;;;;;21.72;53.72;97327.56;4217996;28;5741;-70
2023/05/26 12:03:18;;;;;;;;;;;;;;;21.73;53.38;97323.81;4218370;28;5679;-71
2023/05/26 12:05:23;;;;;;;;;;;;;;;21.74;53.66;97330.81;4218296;28;6397;-70
2023/05/26 12:07:30;;;;;;;;;;;;;;;21.74;53.77;97322.72;4218018;28;5696;-70
2023/05/26 12:09:33;;;;;;;;;;;;;;;21.74;53.60;97326.25;4217993;28;5743;-71
2023/05/26 12:11:38;;;;;;;;;;;;;;;21.74;53.42;97320.84;4217678;28;5661;-71
2023/05/26 12:13:41;;;;;;;;;;;;;;;21.78;53.49;97321.19;4217839;28;5664;-71
2023/05/26 12:15:52;;;;;;;;;;;;;;;21.80;53.52;97319.06;4217669;28;5843;-71
2023/05/26 12:17:56;;;;;;;;;;;;;;;21.82;53.53;97316.09;4218358;28;5696;-71
2023/05/26 12:19:59;;;;;;;;;;;;;;;21.82;53.78;97316.09;4218130;28;6358;-71
2023/05/26 12:22:03;;;;;;;;;;;;;;;21.83;53.28;97307.78;4217329;28;5778;-71
2023/05/26 12:24:06;;;;;;;;;;;;;;;21.85;53.27;97300.25;4217257;28;5679;-72
2023/05/26 12:26:16;;;;;;;;;;;;;;;21.89;53.34;97301.41;4216408;28;5703;-71
2023/05/26 12:28:19;;;;;;;;;;;;;;;21.92;53.74;97306.25;4217834;28;5659;-71
2023/05/26 12:30:24;;;;;;;;;;;;;;;21.94;53.55;97297.94;4217390;28;5709;-72
2023/05/26 12:32:43;;;;;;;;;;;;;;;21.99;53.61;97306.06;4217780;28;5664;-71
2023/05/26 12:34:46;;;;;;;;;;;;;;;21.99;53.37;97301.50;4217748;28;5672;-71
2023/05/26 12:36:50;;;;;;;;;;;;;;;22.01;53.17;97293.16;4217511;28;5664;-71
2023/05/26 12:38:54;;;;;;;;;;;;;;;22.04;53.33;97298.84;4217510;28;5676;-71
2023/05/26 12:40:56;;;;;;;;;;;;;;;22.06;53.32;97299.44;4217362;28;5687;-73
2023/05/26 12:42:59;;;;;;;;;;;;;;;22.07;52.92;97295.66;4217440;28;5766;-76
2023/05/26 12:45:02;;;;;;;;;;;;;;;22.10;53.46;97293.56;4217231;28;5731;-73
2023/05/26 12:47:06;;;;;;;;;;;;;;;22.13;53.05;97293.84;4217214;28;5853;-72
2023/05/26 12:49:10;;;;;;;;;;;;;;;22.16;52.88;97293.34;4217432;28;5679;-73
2023/05/26 12:51:16;;;;;;;;;;;;;;;22.16;53.21;97295.22;4217370;28;5166;-71
2023/05/26 12:53:19;;;;;;;;;;;;;;;22.17;52.74;97294.97;4217516;28;5672;-71
2023/05/26 12:55:23;;;;;;;;;;;;;;;22.21;53.04;97300.69;4217447;28;5671;-72
2023/05/26 12:57:26;;;;;;;;;;;;;;;22.24;53.04;97300.16;4217186;28;5688;-71
2023/05/26 12:59:29;;;;;;;;;;;;;;;22.27;53.11;97294.25;4216898;28;5705;-71
2023/05/26 13:01:32;;;;;;;;;;;;;;;22.27;52.48;97286.97;4217283;28;5675;-72
2023/05/26 13:03:35;;;;;;;;;;;;;;;22.28;52.76;97299.38;4215094;28;6344;-71
2023/05/26 13:05:40;;;;;;;;;;;;;;;22.28;52.92;97287.78;4209463;28;5846;-72
2023/05/26 13:07:43;;;;;;;;;;;;;;;22.30;52.93;97289.16;4216331;28;5675;-71
2023/05/26 13:09:47;;;;;;;;;;;;;;;22.31;52.97;97288.13;4217607;28;5799;-71
2023/05/26 13:11:50;;;;;;;;;;;;;;;22.31;52.90;97281.88;4217552;28;5660;-71
2023/05/26 13:13:53;;;;;;;;;;;;;;;22.34;52.58;97284.09;4216350;28;5671;-71
2023/05/26 13:15:56;;;;;;;;;;;;;;;22.37;52.84;97287.06;4216117;28;5806;-71
2023/05/26 13:17:59;;;;;;;;;;;;;;;22.39;52.26;97276.03;4217172;28;5683;-72
2023/05/26 13:20:04;;;;;;;;;;;;;;;22.43;52.66;97279.06;4216936;28;5763;-72
2023/05/26 13:22:08;;;;;;;;;;;;;;;22.45;52.71;97276.91;4212772;28;5811;-72
2023/05/26 13:24:11;;;;;;;;;;;;;;;22.48;52.48;97281.78;4207258;28;5699;-72
2023/05/26 13:26:14;;;;;;;;;;;;;;;22.50;52.42;97271.56;4215809;28;5623;-72
2023/05/26 13:28:17;;;;;;;;;;;;;;;22.51;52.53;97271.28;4215226;28;5756;-71
2023/05/26 13:30:20;;;;;;;;;;;;;;;22.53;52.44;97271.03;4212402;28;5667;-71
2023/05/26 13:32:23;;;;;;;;;;;;;;;22.51;52.25;97271.28;4212777;28;6356;-71
2023/05/26 13:34:26;;;;;;;;;;;;;;;22.53;52.41;97273.72;4215335;28;6368;-71
2023/05/26 13:36:31;;;;;;;;;;;;;;;22.56;52.09;97262.44;4218174;28;5687;-72
2023/05/26 13:38:36;;;;;;;;;;;;;;;22.56;52.20;97265.97;4216164;28;5688;-71
2023/05/26 13:40:40;;;;;;;;;;;;;;;22.57;52.05;97264.88;4218190;28;5680;-71
2023/05/26 13:42:46;;;;;;;;;;;;;;;22.58;52.37;97263.81;4213648;28;5854;-71
2023/05/26 13:44:52;;;;;;;;;;;;;;;22.61;52.29;97260.59;4219452;28;5689;-71
2023/05/26 13:46:54;;;;;;;;;;;;;;;22.62;51.76;97259.53;4220320;28;5660;-71
2023/05/26 13:48:58;;;;;;;;;;;;;;;22.65;51.99;97250.09;4218901;28;5655;-70
2023/05/26 13:51:02;;;;;;;;;;;;;;;22.65;52.11;97245.56;4215723;28;5803;-71
2023/05/26 13:53:04;;;;;;;;;;;;;;;22.64;52.08;97260.06;4208702;28;5817;-70
2023/05/26 13:55:10;;;;;;;;;;;;;;;22.63;51.96;97250.38;4215564;28;6548;-71
2023/05/26 13:57:13;;;;;;;;;;;;;;;22.64;51.94;97248.47;4212731;28;5846;-71
2023/05/26 13:59:16;;;;;;;;;;;;;;;22.69;52.03;97248.53;4215861;28;5802;-70
2023/05/26 14:01:19;;;;;;;;;;;;;;;22.73;51.57;97240.72;4206797;28;5801;-70
2023/05/26 14:03:38;;;;;;;;;;;;;;;22.71;51.93;97250.97;4215124;28;5846;-70
2023/05/26 14:05:42;;;;;;;;;;;;;;;22.70;51.88;97235.88;4213835;28;5826;-71
2023/05/26 14:07:45;;;;;;;;;;;;;;;22.76;51.27;97237.50;4213126;28;5113;-71
2023/05/26 14:09:48;;;;;;;;;;;;;;;22.74;51.61;97236.97;4214845;28;5743;-71
2023/05/26 14:11:52;;;;;;;;;;;;;;;22.72;51.76;97239.09;4213696;28;5821;-71
2023/05/26 14:13:55;;;;;;;;;;;;;;;22.73;51.74;97232.66;4214165;28;5944;-71
2023/05/26 14:15:58;;;;;;;;;;;;;;;22.77;51.69;97228.38;4213843;28;7707;-70
2023/05/26 14:18:01;;;;;;;;;;;;;;;22.78;51.19;97238.88;4212511;28;5895;-71
2023/05/26 14:20:11;;;;;;;;;;;;;;;22.79;51.64;97228.91;4208184;28;5689;-70
2023/05/26 14:22:34;;;;;;;;;;;;;;;22.81;50.96;97222.19;4206645;28;5829;-70
2023/05/26 14:24:37;;;;;;;;;;;;;;;22.79;51.44;97218.13;4211752;28;6021;-71
2023/05/26 14:26:43;;;;;;;;;;;;;;;22.78;51.13;97219.22;4213740;28;5775;-70
2023/05/26 14:28:48;;;;;;;;;;;;;;;22.80;51.41;97206.28;4209158;28;5773;-70
2023/05/26 14:30:51;;;;;;;;;;;;;;;22.83;50.81;97213.84;4211356;28;6459;-70
2023/05/26 14:32:54;;;;;;;;;;;;;;;22.81;50.82;97211.41;4213948;28;5847;-70
2023/05/26 14:34:57;;;;;;;;;;;;;;;22.82;50.78;97206.81;4213120;28;5117;-71
2023/05/26 14:37:00;;;;;;;;;;;;;;;22.81;51.27;97208.72;4211732;28;5656;-71
2023/05/26 14:39:06;;;;;;;;;;;;;;;22.86;50.81;97199.88;4209932;28;5663;-71
2023/05/26 14:41:09;;;;;;;;;;;;;;;22.90;50.94;97203.69;4214799;28;5655;-71
2023/05/26 14:43:13;;;;;;;;;;;;;;;22.93;50.78;97197.75;4212623;28;5870;-71
2023/05/26 14:45:17;;;;;;;;;;;;;;;22.92;50.55;97196.13;4214105;28;5763;-71
2023/05/26 14:47:20;;;;;;;;;;;;;;;22.89;50.76;97193.97;4213381;28;6536;-71
2023/05/26 14:49:23;;;;;;;;;;;;;;;22.90;50.71;97203.69;4213193;28;5887;-71
2023/05/26 14:51:26;;;;;;;;;;;;;;;22.90;50.61;97192.91;4215794;28;6565;-71
2023/05/26 14:53:29;;;;;;;;;;;;;;;22.90;51.03;97203.69;4214572;28;5778;-71
2023/05/26 14:55:33;;;;;;;;;;;;;;;22.97;50.93;97189.94;4212262;28;5766;-71
2023/05/26 14:57:36;;;;;;;;;;;;;;;22.99;50.38;97194.03;4210135;28;6007;-71
2023/05/26 14:59:39;;;;;;;;;;;;;;;22.97;50.76;97179.16;4209298;28;5898;-71
2023/05/26 15:01:43;;;;;;;;;;;;;;;23.00;50.85;97181.34;4214662;28;5891;-71
2023/05/26 15:03:47;;;;;;;;;;;;;;;23.01;50.49;97183.78;4215658;28;5752;-71
2023/05/26 15:06:15;;;;;;;;;;;;;;;23.08;50.35;97172.75;4214113;28;5772;-71
2023/05/26 15:08:17;;;;;;;;;;;;;;;23.08;50.50;97173.53;4213629;28;5810;-69
2023/05/26 15:10:21;;;;;;;;;;;;;;;23.09;50.56;97180.56;4211631;28;5742;-69
2023/05/26 15:12:37;;;;;;;;;;;;;;;23.08;50.31;97178.94;4215596;28;5932;-70
2023/05/26 15:14:40;;;;;;;;;;;;;;;23.10;50.71;97173.28;4205896;28;5835;-70
2023/05/26 15:16:44;;;;;;;;;;;;;;;23.07;50.65;97188.09;4206654;28;5693;-70
2023/05/26 15:18:47;;;;;;;;;;;;;;;23.06;50.47;97175.69;4209064;28;6037;-78
2023/05/26 15:20:51;;;;;;;;;;;;;;;23.09;50.75;97180.56;4205505;28;5889;-70
2023/05/26 15:22:54;;;;;;;;;;;;;;;23.13;50.53;97183.56;4211153;28;5750;-72
2023/05/26 15:24:57;;;;;;;;;;;;;;;23.19;50.35;97183.28;4211398;28;5811;-74
2023/05/26 15:27:00;;;;;;;;;;;;;;;23.17;50.36;97171.16;4210575;28;5751;-72
2023/05/26 15:29:03;;;;;;;;;;;;;;;23.13;50.30;97181.66;4212850;28;5683;-69
2023/05/26 15:31:06;;;;;;;;;;;;;;;23.08;50.36;97176.25;4215689;28;5695;-71
2023/05/26 15:33:13;;;;;;;;;;;;;;;23.08;50.39;97181.63;4224976;28;5823;-72
2023/05/26 15:35:19;;;;;;;;;;;;;;;23.09;50.21;97168.97;4214987;28;5782;-71
2023/05/26 15:37:22;;;;;;;;;;;;;;;23.12;50.16;97176.53;4208894;28;5911;-68
2023/05/26 15:39:26;;;;;;;;;;;;;;;23.13;50.65;97175.47;4215209;28;5687;-68
2023/05/26 15:41:29;;;;;;;;;;;;;;;23.13;50.22;97172.78;4208930;28;5754;-69
2023/05/26 15:43:33;;;;;;;;;;;;;;;23.19;50.39;97174.41;4209815;28;5655;-68
2023/05/26 15:45:35;;;;;;;;;;;;;;;23.16;50.44;97170.34;4215071;28;5773;-67
2023/05/26 15:47:38;;;;;;;;;;;;;;;23.15;50.52;97171.44;4215146;28;5818;-74
2023/05/26 15:49:43;;;;;;;;;;;;;;;23.12;50.46;97169.25;4210997;28;5834;-72
2023/05/26 15:51:46;;;;;;;;;;;;;;;23.12;50.20;97169.25;4215568;28;5833;-73
2023/05/26 15:53:48;;;;;;;;;;;;;;;23.14;50.41;97167.13;4215344;28;5750;-72
2023/05/26 15:55:52;;;;;;;;;;;;;;;23.18;50.21;97162.78;4213896;28;5770;-72
2023/05/26 15:57:57;;;;;;;;;;;;;;;23.20;50.10;97167.91;4213463;28;5887;-73
2023/05/26 16:00:05;;;;;;;;;;;;;;;23.21;49.85;97164.16;4214316;28;6268;-70
2023/05/26 16:02:08;;;;;;;;;;;;;;;23.20;50.25;97170.63;4215392;28;5769;-70
2023/05/26 16:04:11;;;;;;;;;;;;;;;23.18;50.24;97156.59;4211009;28;5830;-71
2023/05/26 16:06:16;;;;;;;;;;;;;;;23.18;50.01;97165.50;4215533;28;5843;-70
2023/05/26 16:08:19;;;;;;;;;;;;;;;23.19;50.32;97160.91;4207250;28;5947;-68
2023/05/26 16:10:22;;;;;;;;;;;;;;;23.22;50.14;97163.09;4214665;28;5815;-70
2023/05/26 16:12:24;;;;;;;;;;;;;;;23.29;50.34;97157.44;4214508;28;5882;-72
2023/05/26 16:14:27;;;;;;;;;;;;;;;23.35;49.99;97161.78;4209955;28;5843;-70
2023/05/26 16:16:30;;;;;;;;;;;;;;;23.38;49.79;97161.25;4214864;28;5758;-72
2023/05/26 16:18:33;;;;;;;;;;;;;;;23.34;49.99;97160.97;4209959;28;5771;-72
2023/05/26 16:20:36;;;;;;;;;;;;;;;23.29;49.65;97158.25;4215111;28;5830;-71